Time;durP1;ratioP1;P1;durP2;ratioP2;P2;SDS_P1;SDS_P2;PMS_P1;PMS_P2;Temp;Humidity;BMP_temperature;BMP_pressure;BME280_temperature;BME280_humidity;BME280_pressure;Samples;Min_cycle;Max_cycle;Signal;HPM_P1;HPM_P2
2022/11/04 00:01:38;;;;;;;1.15;0.30;;;11.00;99.90;;;;;;5137248;27;20047;-69
2022/11/04 00:04:04;;;;;;;3.83;0.40;;;10.90;99.90;;;;;;5137300;27;20054;-70
2022/11/04 00:06:29;;;;;;;1.45;0.30;;;10.80;99.90;;;;;;5137003;27;20051;-71
2022/11/04 00:08:57;;;;;;;3.03;0.30;;;10.80;99.90;;;;;;5136929;27;20490;-70
2022/11/04 00:14:09;;;;;;;1.10;0.20;;;10.80;99.90;;;;;;5137442;27;20061;-68
2022/11/04 00:19:19;;;;;;;2.45;0.20;;;10.70;99.90;;;;;;5136757;27;20146;-69
2022/11/04 00:30:00;;;;;;;1.00;0.10;;;10.60;99.90;;;;;;5136322;27;20044;-70
2022/11/04 00:35:11;;;;;;;2.83;0.10;;;10.50;99.90;;;;;;5137050;27;20114;-68
2022/11/04 00:37:42;;;;;;;3.30;0.20;;;10.50;99.90;;;;;;5118447;27;20051;-69
2022/11/04 00:40:10;;;;;;;1.60;0.20;;;10.60;99.90;;;;;;5118450;27;20041;-69
2022/11/04 00:42:36;;;;;;;1.67;0.20;;;10.50;99.90;;;;;;5136163;27;20104;-69
2022/11/04 00:45:02;;;;;;;1.95;0.20;;;10.60;99.90;;;;;;5136156;27;20043;-69
2022/11/04 00:47:28;;;;;;;3.10;0.20;;;10.50;99.90;;;;;;5135943;27;20092;-70
2022/11/04 00:49:55;;;;;;;2.28;0.30;;;10.50;99.90;;;;;;5117461;27;20378;-69
2022/11/04 00:52:20;;;;;;;1.75;0.20;;;10.60;99.90;;;;;;5136260;27;20039;-71
2022/11/04 00:54:46;;;;;;;2.35;0.20;;;10.70;99.90;;;;;;5135642;27;20103;-70
2022/11/04 00:57:13;;;;;;;1.67;0.20;;;10.60;99.90;;;;;;5100617;27;20050;-70
2022/11/04 00:59:39;;;;;;;1.60;0.20;;;10.60;99.90;;;;;;5136016;27;20039;-71
2022/11/04 01:02:09;;;;;;;1.35;0.40;;;10.60;99.90;;;;;;5134716;27;20039;-69
2022/11/04 01:04:35;;;;;;;0.75;0.17;;;10.50;99.90;;;;;;5117734;27;20532;-70
2022/11/04 01:07:01;;;;;;;0.82;0.20;;;10.50;99.90;;;;;;5100579;27;20051;-70
2022/11/04 01:09:27;;;;;;;2.97;0.20;;;10.50;99.90;;;;;;5136013;27;20042;-68
2022/11/04 01:11:53;;;;;;;1.40;0.20;;;10.50;99.90;;;;;;5117348;27;20126;-70
2022/11/04 01:14:19;;;;;;;2.95;0.20;;;10.40;99.90;;;;;;5135198;27;20047;-68
2022/11/04 01:16:44;;;;;;;2.17;0.20;;;10.40;99.90;;;;;;5135489;27;20041;-69
2022/11/04 01:19:11;;;;;;;1.13;0.17;;;10.50;99.90;;;;;;5100347;27;20391;-72
2022/11/04 01:21:37;;;;;;;1.23;0.20;;;10.50;99.90;;;;;;5135891;27;20079;-68
2022/11/04 01:24:03;;;;;;;1.38;0.30;;;10.40;99.90;;;;;;5117286;27;20054;-69
2022/11/04 01:26:29;;;;;;;2.47;0.20;;;10.40;99.90;;;;;;5117324;27;20082;-68
2022/11/04 01:28:56;;;;;;;2.35;0.20;;;10.40;99.90;;;;;;5101041;27;20043;-69
2022/11/04 01:31:25;;;;;;;2.90;0.30;;;10.40;99.90;;;;;;5117414;27;20527;-70
2022/11/04 01:33:52;;;;;;;0.90;0.20;;;10.40;99.90;;;;;;5117054;27;20054;-70
2022/11/04 01:36:19;;;;;;;3.75;0.50;;;10.40;99.90;;;;;;5116929;27;20399;-70
2022/11/04 01:38:45;;;;;;;2.42;0.30;;;10.50;99.90;;;;;;5117260;27;20479;-69
2022/11/04 01:41:21;;;;;;;2.90;0.30;;;10.50;99.90;;;;;;5135290;27;20050;-72
2022/11/04 01:43:55;;;;;;;2.83;0.40;;;10.50;99.90;;;;;;5100070;27;20058;-70
2022/11/04 01:46:24;;;;;;;2.38;0.40;;;10.50;99.90;;;;;;5134992;27;20043;-68
2022/11/04 01:48:51;;;;;;;2.13;0.45;;;10.50;99.90;;;;;;5117604;27;20050;-69
2022/11/04 01:51:19;;;;;;;2.83;0.50;;;10.50;99.90;;;;;;5099760;27;20151;-68
2022/11/04 01:53:45;;;;;;;5.30;0.60;;;10.50;99.90;;;;;;5099935;27;20479;-70
2022/11/04 01:56:13;;;;;;;4.80;0.73;;;10.60;99.90;;;;;;5099450;27;20051;-69
2022/11/04 01:58:46;;;;;;;3.90;1.15;;;10.60;99.90;;;;;;5135490;27;20423;-69
2022/11/04 02:01:12;;;;;;;4.68;1.30;;;10.50;99.90;;;;;;5135149;27;20069;-70
2022/11/04 02:03:48;;;;;;;8.07;1.33;;;10.50;99.90;;;;;;5134660;27;20494;-70
2022/11/04 02:06:16;;;;;;;5.63;1.70;;;10.60;99.90;;;;;;5099674;27;20047;-71
2022/11/04 02:08:42;;;;;;;;;;;10.60;99.90;;;;;;5117221;27;20046;-70
2022/11/04 02:11:07;;;;;;;8.03;1.40;;;10.60;99.90;;;;;;5099351;27;19923;-69
2022/11/04 02:13:34;;;;;;;5.00;1.42;;;10.60;99.90;;;;;;5099701;27;20061;-71
2022/11/04 02:16:19;;;;;;;;;;;10.60;99.90;;;;;;5099782;27;20051;-70
2022/11/04 02:19:19;;;;;;;5.55;1.88;;;10.60;99.90;;;;;;5116757;27;19919;-70
2022/11/04 02:22:11;;;;;;;9.52;2.08;;;10.60;99.90;;;;;;5134511;27;20049;-70
2022/11/04 02:25:01;;;;;;;4.68;2.13;;;10.60;99.90;;;;;;5116838;27;20122;-69
2022/11/04 02:27:42;;;;;;;9.43;2.10;;;10.70;99.90;;;;;;5116547;27;20540;-68
2022/11/04 02:30:10;;;;;;;5.85;2.22;;;10.70;99.90;;;;;;5134410;27;20047;-68
2022/11/04 02:32:57;;;;;;;9.13;2.55;;;10.70;99.90;;;;;;5115609;27;20083;-69
2022/11/04 02:35:38;;;;;;;5.70;2.38;;;10.70;99.90;;;;;;5133948;27;20043;-69
2022/11/04 02:38:09;;;;;;;6.78;2.45;;;10.70;99.90;;;;;;5116034;27;20118;-70
2022/11/04 02:40:42;;;;;;;7.70;2.63;;;10.70;99.90;;;;;;5116100;27;20043;-70
2022/11/04 02:43:22;;;;;;;6.38;2.42;;;10.70;99.90;;;;;;5133879;27;20051;-70
2022/11/04 02:45:53;;;;;;;10.13;2.90;;;10.70;99.90;;;;;;5133915;27;20047;-70
2022/11/04 02:48:21;;;;;;;6.95;2.78;;;10.60;99.90;;;;;;5134082;27;20575;-70
2022/11/04 02:50:50;;;;;;;8.27;3.25;;;10.60;99.90;;;;;;5133842;27;20043;-70
2022/11/04 02:53:41;;;;;;;10.20;3.45;;;10.70;99.90;;;;;;5133786;27;20043;-69
2022/11/04 02:56:10;;;;;;;9.73;3.50;;;10.70;99.90;;;;;;5115962;27;20510;-68
2022/11/04 02:58:41;;;;;;;5.93;1.95;;;10.60;99.90;;;;;;5133762;27;20067;-68
2022/11/04 03:01:12;;;;;;;5.78;1.55;;;10.70;99.90;;;;;;5116283;27;20077;-68
2022/11/04 03:03:43;;;;;;;4.70;1.33;;;10.60;99.90;;;;;;5115268;28;20050;-69
2022/11/04 03:06:13;;;;;;;4.78;1.10;;;10.60;99.90;;;;;;5098848;27;20114;-68
2022/11/04 03:08:44;;;;;;;4.68;1.10;;;10.60;99.90;;;;;;5134231;27;20078;-70
2022/11/04 03:11:20;;;;;;;5.85;1.20;;;10.50;99.90;;;;;;5098606;28;20039;-68
2022/11/04 03:14:05;;;;;;;3.70;0.90;;;10.50;99.90;;;;;;5133046;27;20046;-70
2022/11/04 03:16:37;;;;;;;4.60;0.80;;;10.40;99.90;;;;;;5115085;28;20054;-69
2022/11/04 03:19:31;;;;;;;4.55;0.73;;;10.40;99.90;;;;;;5115499;28;20166;-74
2022/11/04 03:22:10;;;;;;;5.00;0.75;;;10.40;99.90;;;;;;5123772;28;20062;-69
2022/11/04 03:24:36;;;;;;;4.50;0.70;;;10.40;99.90;;;;;;5115579;28;20475;-69
2022/11/04 03:27:23;;;;;;;1.95;0.50;;;10.40;99.90;;;;;;5115090;28;20047;-69
2022/11/04 03:29:57;;;;;;;3.30;0.55;;;10.30;99.90;;;;;;5133350;28;20091;-71
2022/11/04 03:32:53;;;;;;;4.15;0.38;;;10.30;99.90;;;;;;5134068;28;20461;-71
2022/11/04 03:35:19;;;;;;;1.23;0.10;;;10.20;99.90;;;;;;5114959;28;20051;-69
2022/11/04 03:37:47;;;;;;;1.55;0.20;;;10.20;99.90;;;;;;5115126;28;20046;-68
2022/11/04 03:40:14;;;;;;;0.73;0.10;;;10.10;99.90;;;;;;5133400;28;20044;-69
2022/11/04 03:42:44;;;;;;;0.63;0.10;;;10.00;99.90;;;;;;5133430;28;20479;-70
2022/11/04 03:45:11;;;;;;;1.73;0.20;;;9.90;99.90;;;;;;5133586;28;20083;-69
2022/11/04 03:47:37;;;;;;;0.28;0.10;;;9.90;99.90;;;;;;5134031;28;20371;-69
2022/11/04 03:50:32;;;;;;;1.52;0.10;;;9.90;99.90;;;;;;5132834;28;20039;-69
2022/11/04 03:52:59;;;;;;;4.00;0.17;;;9.90;99.90;;;;;;5132239;28;20059;-70
2022/11/04 03:55:53;;;;;;;3.10;0.10;;;9.80;99.90;;;;;;5132874;27;20146;-68
2022/11/04 03:58:34;;;;;;;4.75;0.15;;;9.90;99.90;;;;;;5115451;28;20058;-71
2022/11/04 04:01:23;;;;;;;1.17;0.10;;;9.90;99.90;;;;;;5115002;28;20423;-72
2022/11/04 04:04:28;;;;;;;2.92;0.20;;;9.80;99.90;;;;;;5133630;28;20114;-70
2022/11/04 04:07:19;;;;;;;3.28;0.20;;;9.80;99.90;;;;;;5117857;28;20086;-70
2022/11/04 04:09:58;;;;;;;3.35;0.20;;;9.80;99.90;;;;;;5113794;28;20047;-70
2022/11/04 04:12:34;;;;;;;1.52;0.10;;;9.80;99.90;;;;;;5115261;28;20051;-74
2022/11/04 04:15:25;;;;;;;0.70;0.20;;;9.90;99.90;;;;;;5114666;28;20047;-69
2022/11/04 04:18:00;;;;;;;2.50;0.20;;;9.80;99.90;;;;;;5115651;28;20035;-68
2022/11/04 04:20:30;;;;;;;2.15;0.28;;;9.80;99.90;;;;;;5133209;28;20050;-69
2022/11/04 04:27:29;;;;;;;2.08;0.30;;;9.80;99.90;;;;;;5132892;28;20133;-70
2022/11/04 04:28:38;;;;;;;5.05;0.35;;;9.80;99.90;;;;;;5136605;27;20059;-69
2022/11/04 04:31:05;;;;;;;3.08;0.40;;;9.80;99.90;;;;;;5136508;27;20039;-69
2022/11/04 04:33:31;;;;;;;2.90;0.30;;;9.80;99.90;;;;;;5136550;27;20054;-68
2022/11/04 04:35:58;;;;;;;2.80;0.40;;;9.80;99.90;;;;;;5134872;27;20043;-69
2022/11/04 04:47:05;;;;;;;2.08;0.28;;;9.70;99.90;;;;;;5136209;27;20051;-68
2022/11/04 04:49:33;;;;;;;2.30;0.40;;;9.80;99.90;;;;;;5136024;27;20147;-69
2022/11/04 04:52:06;;;;;;;4.15;0.40;;;9.70;99.90;;;;;;5101510;27;20043;-69
2022/11/04 04:54:31;;;;;;;4.07;1.15;;;9.70;99.90;;;;;;5118483;27;20077;-68
2022/11/04 04:56:57;;;;;;;3.92;0.43;;;9.70;99.90;;;;;;5135954;27;20126;-68
2022/11/04 04:59:23;;;;;;;3.72;1.30;;;9.80;99.90;;;;;;5135854;27;20168;-68
2022/11/04 05:01:48;;;;;;;4.78;0.30;;;9.70;99.90;;;;;;5117540;27;20043;-69
2022/11/04 05:04:14;;;;;;;2.00;0.25;;;9.70;99.90;;;;;;5134242;27;20092;-68
2022/11/04 05:06:40;;;;;;;0.60;0.10;;;9.70;99.90;;;;;;5117058;27;20122;-70
2022/11/04 05:09:06;;;;;;;0.93;0.10;;;9.60;99.90;;;;;;5117405;27;20126;-68
2022/11/04 05:11:32;;;;;;;2.13;0.10;;;9.60;99.90;;;;;;5136293;27;20362;-67
2022/11/04 05:13:57;;;;;;;0.55;0.10;;;9.50;99.90;;;;;;5135709;27;20050;-68
2022/11/04 05:16:23;;;;;;;1.58;0.10;;;9.50;99.90;;;;;;5117336;27;20122;-68
2022/11/04 05:18:51;;;;;;;1.00;0.10;;;9.50;99.90;;;;;;5117544;27;20081;-69
2022/11/04 05:21:16;;;;;;;1.27;0.20;;;9.50;99.90;;;;;;5135808;27;20047;-68
2022/11/04 05:23:42;;;;;;;2.95;0.30;;;9.40;99.90;;;;;;5135852;27;20055;-68
2022/11/04 05:26:08;;;;;;;4.10;0.35;;;9.40;99.90;;;;;;5117743;27;20415;-68
2022/11/04 05:28:34;;;;;;;3.22;0.50;;;9.30;99.90;;;;;;5100267;27;20184;-69
2022/11/04 05:31:04;;;;;;;4.57;0.80;;;9.30;99.90;;;;;;5082832;27;20083;-69
2022/11/04 05:33:30;;;;;;;3.75;0.90;;;9.20;99.90;;;;;;5117003;27;20055;-70
2022/11/04 05:36:06;;;;;;;3.28;0.50;;;9.10;99.90;;;;;;5133444;27;20047;-69
2022/11/04 05:38:31;;;;;;;3.13;0.50;;;9.10;99.90;;;;;;5100285;27;20458;-72
2022/11/04 05:40:57;;;;;;;2.42;0.40;;;9.00;99.90;;;;;;5116268;27;20050;-68
2022/11/04 05:43:23;;;;;;;4.07;0.60;;;8.90;99.90;;;;;;5083370;27;20043;-70
2022/11/04 05:45:49;;;;;;;3.75;0.50;;;8.80;99.90;;;;;;5134964;27;20043;-68
2022/11/04 05:48:14;;;;;;;2.13;0.70;;;8.70;99.90;;;;;;5117055;27;20039;-68
2022/11/04 05:50:41;;;;;;;7.00;0.70;;;8.70;99.90;;;;;;5083122;27;20039;-70
2022/11/04 05:53:07;;;;;;;2.97;0.60;;;8.60;99.90;;;;;;5134821;27;20036;-68
2022/11/04 05:55:32;;;;;;;3.95;0.60;;;8.50;99.90;;;;;;5134609;27;20059;-69
2022/11/04 05:57:58;;;;;;;2.47;0.52;;;8.40;99.90;;;;;;5116503;27;20108;-68
2022/11/04 06:00:26;;;;;;;1.98;0.40;;;8.40;99.90;;;;;;5117129;27;20047;-68
2022/11/04 06:02:52;;;;;;;1.90;0.40;;;8.40;99.90;;;;;;5116670;27;20462;-67
2022/11/04 06:05:18;;;;;;;2.35;0.40;;;8.40;99.90;;;;;;5116554;27;20081;-68
2022/11/04 06:07:43;;;;;;;3.88;0.60;;;8.40;99.90;;;;;;5134490;27;20047;-74
2022/11/04 06:10:09;;;;;;;3.67;0.60;;;8.30;99.90;;;;;;5115720;27;20039;-67
2022/11/04 06:12:35;;;;;;;2.58;0.50;;;8.30;99.90;;;;;;5135152;27;20050;-67
2022/11/04 06:15:01;;;;;;;2.65;0.50;;;8.20;99.90;;;;;;5116149;27;20387;-69
2022/11/04 06:17:26;;;;;;;4.78;0.63;;;8.30;99.90;;;;;;5134258;27;20059;-69
2022/11/04 06:19:52;;;;;;;4.35;0.50;;;8.20;99.90;;;;;;5098961;27;20043;-68
2022/11/04 06:22:19;;;;;;;2.85;0.50;;;8.30;99.90;;;;;;5134428;27;20049;-68
2022/11/04 06:24:44;;;;;;;3.50;0.73;;;8.30;99.90;;;;;;5134412;27;20084;-72
2022/11/04 06:27:11;;;;;;;4.65;0.45;;;8.30;99.90;;;;;;5134845;27;20047;-69
2022/11/04 06:29:40;;;;;;;2.92;0.30;;;8.30;99.90;;;;;;5134017;27;20432;-69
2022/11/04 06:32:07;;;;;;;4.50;0.30;;;8.30;99.90;;;;;;5115780;27;20118;-70
2022/11/04 06:34:33;;;;;;;;;;;8.30;99.90;;;;;;5134369;27;20487;-69
2022/11/04 06:36:59;;;;;;;2.00;0.40;;;8.40;99.90;;;;;;5133832;27;19970;-70
2022/11/04 06:39:25;;;;;;;3.38;0.40;;;8.40;99.90;;;;;;5115370;27;20146;-71
2022/11/04 06:41:50;;;;;;;3.42;0.43;;;8.40;99.90;;;;;;5133933;27;20105;-70
2022/11/04 06:44:16;;;;;;;1.98;0.30;;;8.50;99.90;;;;;;5098683;27;20035;-68
2022/11/04 06:46:42;;;;;;;1.38;0.20;;;8.50;99.90;;;;;;5115224;28;20126;-68
2022/11/04 06:49:17;;;;;;;3.50;0.38;;;8.40;99.90;;;;;;5115370;27;20047;-68
2022/11/04 06:51:43;;;;;;;2.60;0.32;;;8.40;99.90;;;;;;5098561;27;20398;-68
2022/11/04 06:54:09;;;;;;;3.80;0.30;;;8.40;99.90;;;;;;5133462;27;20050;-69
2022/11/04 06:56:35;;;;;;;1.47;0.30;;;8.40;99.90;;;;;;5115256;27;20055;-68
2022/11/04 06:59:02;;;;;;;3.20;0.35;;;8.30;99.90;;;;;;5115419;27;20110;-70
2022/11/04 07:01:31;;;;;;;1.77;0.40;;;8.30;99.90;;;;;;5133213;27;20386;-69
2022/11/04 07:03:59;;;;;;;3.88;0.63;;;8.30;99.90;;;;;;5134256;27;20043;-69
2022/11/04 07:06:25;;;;;;;4.10;0.65;;;8.40;99.90;;;;;;5115427;28;20047;-70
2022/11/04 07:08:52;;;;;;;4.05;0.50;;;8.30;99.90;;;;;;5115379;28;20051;-73
2022/11/04 07:11:28;;;;;;;3.15;0.70;;;8.40;99.90;;;;;;5098328;28;20123;-69
2022/11/04 07:13:54;;;;;;;3.63;0.70;;;8.30;99.90;;;;;;5134218;28;20039;-68
2022/11/04 07:16:20;;;;;;;4.22;0.90;;;8.30;99.90;;;;;;5115167;28;20075;-69
2022/11/04 07:18:48;;;;;;;4.50;0.90;;;8.30;99.90;;;;;;5115531;28;20070;-68
2022/11/04 07:21:14;;;;;;;5.30;1.27;;;8.40;99.90;;;;;;5115598;28;20548;-68
2022/11/04 07:23:40;;;;;;;3.83;1.17;;;8.50;99.90;;;;;;5115885;28;20085;-68
2022/11/04 07:26:09;;;;;;;4.50;1.08;;;8.50;99.90;;;;;;5133716;28;20423;-69
2022/11/04 07:28:35;;;;;;;6.05;1.42;;;8.60;99.90;;;;;;5098621;28;20097;-67
2022/11/04 07:31:02;;;;;;;5.88;1.65;;;8.70;99.90;;;;;;5097646;28;20050;-68
2022/11/04 07:33:28;;;;;;;5.45;1.75;;;8.70;99.90;;;;;;5133289;28;20146;-68
2022/11/04 07:35:54;;;;;;;8.40;2.10;;;8.80;99.90;;;;;;5098229;28;20130;-73
2022/11/04 07:38:21;;;;;;;7.40;2.43;;;8.80;99.90;;;;;;5098270;28;20126;-68
2022/11/04 07:40:47;;;;;;;7.80;2.38;;;8.90;99.90;;;;;;5115046;28;20495;-69
2022/11/04 07:43:14;;;;;;;9.13;2.78;;;8.90;99.90;;;;;;5133268;28;20081;-69
2022/11/04 07:45:39;;;;;;;8.85;3.30;;;9.00;99.90;;;;;;5097809;28;20487;-70
2022/11/04 07:48:06;;;;;;;8.80;2.88;;;9.00;99.90;;;;;;5098556;28;20057;-68
2022/11/04 07:50:31;;;;;;;9.20;3.42;;;9.10;99.90;;;;;;5114765;28;20051;-69
2022/11/04 07:52:59;;;;;;;15.93;3.85;;;9.20;99.90;;;;;;5114657;28;20036;-69
2022/11/04 07:55:25;;;;;;;;;;;9.30;99.90;;;;;;5115363;28;20055;-68
2022/11/04 07:57:50;;;;;;;16.47;4.70;;;9.40;99.90;;;;;;5133235;27;20278;-68
2022/11/04 08:00:16;;;;;;;10.57;4.82;;;9.50;99.90;;;;;;5136853;27;20039;-68
2022/11/04 08:02:45;;;;;;;13.60;5.55;;;9.60;99.90;;;;;;5085329;27;20070;-68
2022/11/04 08:05:12;;;;;;;13.15;4.95;;;9.60;99.90;;;;;;5118370;27;20043;-69
2022/11/04 08:07:38;;;;;;;15.05;5.65;;;9.70;99.90;;;;;;5119170;27;20047;-68
2022/11/04 08:10:05;;;;;;;13.07;5.53;;;9.80;99.90;;;;;;5137493;27;20045;-68
2022/11/04 08:12:31;;;;;;;14.52;5.88;;;9.80;99.90;;;;;;5118803;27;20090;-69
2022/11/04 08:14:58;;;;;;;18.42;6.15;;;9.90;99.90;;;;;;5118446;27;20046;-68
2022/11/04 08:17:24;;;;;;;11.40;4.82;;;10.00;99.90;;;;;;5137764;27;20054;-67
2022/11/04 08:19:50;;;;;;;28.45;6.80;;;10.00;99.90;;;;;;5137275;27;20399;-67
2022/11/04 08:22:15;;;;;;;15.48;5.90;;;9.90;99.90;;;;;;5118284;27;20451;-68
2022/11/04 08:24:41;;;;;;;15.25;6.38;;;9.80;99.90;;;;;;5136785;27;20046;-69
2022/11/04 08:27:09;;;;;;;17.33;6.93;;;9.80;99.90;;;;;;5136369;27;20518;-67
2022/11/04 08:29:35;;;;;;;19.75;6.88;;;9.70;99.90;;;;;;5118328;27;20043;-67
2022/11/04 08:32:01;;;;;;;19.80;7.80;;;9.70;99.90;;;;;;5136368;27;20059;-72
2022/11/04 08:34:26;;;;;;;20.08;8.40;;;9.70;99.90;;;;;;5136617;27;20079;-68
2022/11/04 08:36:52;;;;;;;20.60;8.43;;;9.60;99.90;;;;;;5117964;27;20506;-70
2022/11/04 08:39:18;;;;;;;21.27;9.05;;;9.60;99.90;;;;;;5101325;27;20062;-68
2022/11/04 08:41:45;;;;;;;24.02;10.40;;;9.60;99.90;;;;;;5118029;27;20043;-68
2022/11/04 08:44:13;;;;;;;22.95;10.45;;;9.60;99.90;;;;;;5101296;27;20386;-68
2022/11/04 08:46:40;;;;;;;21.30;9.65;;;9.50;99.90;;;;;;5117856;27;20055;-67
2022/11/04 08:49:06;;;;;;;26.90;11.25;;;9.50;99.90;;;;;;5135919;27;20047;-71
2022/11/04 08:51:34;;;;;;;25.58;11.63;;;9.50;99.90;;;;;;5118498;27;20047;-68
2022/11/04 08:54:00;;;;;;;25.30;11.10;;;9.50;99.90;;;;;;5117867;27;20085;-71
2022/11/04 08:56:32;;;;;;;25.23;10.65;;;9.60;99.90;;;;;;5135873;27;20083;-68
2022/11/04 08:58:58;;;;;;;29.08;11.65;;;9.60;99.90;;;;;;5118485;27;20142;-69
2022/11/04 09:01:25;;;;;;;29.23;11.73;;;9.70;99.90;;;;;;5136669;27;20158;-69
2022/11/04 09:03:51;;;;;;;25.65;11.25;;;9.80;99.90;;;;;;5136804;27;20050;-69
2022/11/04 09:06:23;;;;;;;27.88;12.10;;;9.90;99.90;;;;;;5117328;27;20463;-68
2022/11/04 09:08:51;;;;;;;30.23;12.18;;;9.90;99.90;;;;;;5117910;27;20471;-68
2022/11/04 09:11:17;;;;;;;28.40;11.43;;;10.00;99.90;;;;;;5116382;27;20122;-69
2022/11/04 09:13:43;;;;;;;29.50;12.50;;;10.10;99.90;;;;;;5118287;27;20039;-68
2022/11/04 09:16:11;;;;;;;30.05;12.18;;;10.10;99.90;;;;;;5135655;27;20121;-70
2022/11/04 09:18:37;;;;;;;30.52;13.23;;;10.20;99.90;;;;;;5135780;27;20047;-69
2022/11/04 09:21:05;;;;;;;29.65;13.07;;;10.30;99.90;;;;;;5135461;27;20050;-74
2022/11/04 09:23:31;;;;;;;33.33;14.02;;;10.30;99.90;;;;;;5117376;27;20083;-69
2022/11/04 09:26:01;;;;;;;32.90;13.93;;;10.40;99.90;;;;;;5117374;27;20035;-70
2022/11/04 09:28:27;;;;;;;38.72;15.02;;;10.40;99.90;;;;;;5118172;27;20043;-68
2022/11/04 09:30:53;;;;;;;32.72;13.43;;;10.40;99.90;;;;;;5117447;27;20125;-69
2022/11/04 09:33:18;;;;;;;35.03;14.80;;;10.50;99.90;;;;;;5100343;27;20047;-70
2022/11/04 09:35:54;;;;;;;30.70;14.43;;;10.50;99.90;;;;;;5116835;27;20100;-69
2022/11/04 09:38:20;;;;;;;35.92;16.70;;;10.40;99.90;;;;;;5136062;27;20114;-68
2022/11/04 09:40:47;;;;;;;35.45;15.60;;;10.30;99.90;;;;;;5117299;27;20121;-69
2022/11/04 09:43:45;;;;;;;33.22;15.52;;;10.20;99.90;;;;;;5116889;27;20058;-68
2022/11/04 09:46:12;;;;;;;31.98;14.82;;;10.20;99.90;;;;;;5116669;27;20134;-67
2022/11/04 09:48:50;;;;;;;35.58;15.02;;;10.20;99.90;;;;;;5135932;27;20042;-67
2022/11/04 09:51:19;;;;;;;38.08;15.82;;;10.20;99.90;;;;;;5134788;27;20075;-68
2022/11/04 09:53:51;;;;;;;34.58;15.98;;;10.20;99.90;;;;;;5134930;27;20092;-68
2022/11/04 09:56:27;;;;;;;34.78;15.80;;;10.10;99.90;;;;;;5116477;27;20058;-68
2022/11/04 09:58:53;;;;;;;36.65;15.90;;;10.10;99.90;;;;;;5116665;27;20047;-69
2022/11/04 10:01:46;;;;;;;40.47;18.17;;;10.20;99.90;;;;;;5135032;27;20047;-68
2022/11/04 10:04:15;;;;;;;35.63;16.20;;;10.30;99.90;;;;;;5116752;27;20412;-70
2022/11/04 10:07:21;;;;;;;35.85;15.23;;;10.40;99.90;;;;;;5134952;27;20095;-69
2022/11/04 10:10:02;;;;;;;37.72;15.10;;;10.60;99.90;;;;;;5116555;27;20129;-68
2022/11/04 10:13:13;;;;;;;37.10;16.00;;;10.70;99.90;;;;;;5140196;27;20095;-69
2022/11/04 10:15:55;;;;;;;38.13;16.60;;;10.90;99.90;;;;;;5033116;28;20206;-69
2022/11/04 10:18:45;;;;;;;32.13;15.23;;;11.00;99.90;;;;;;5033298;28;20071;-68
2022/11/04 10:21:26;;;;;;;32.63;15.48;;;10.90;99.90;;;;;;5096469;27;20148;-73
2022/11/04 10:24:14;;;;;;;35.30;16.48;;;10.80;99.90;;;;;;5100883;27;20054;-68
2022/11/04 10:26:58;;;;;;;31.70;14.60;;;10.70;99.90;;;;;;5117414;27;20071;-67
2022/11/04 10:29:39;;;;;;;35.28;15.05;;;10.60;99.90;;;;;;5135249;27;20050;-69
2022/11/04 10:32:18;;;;;;;32.97;16.23;;;10.50;99.90;;;;;;5116631;27;20467;-69
2022/11/04 10:34:47;;;;;;;38.03;16.88;;;10.40;99.90;;;;;;5135412;27;20070;-68
2022/11/04 10:37:13;;;;;;;34.58;16.42;;;10.40;99.90;;;;;;5135262;27;20043;-72
2022/11/04 10:39:43;;;;;;;32.95;16.38;;;10.40;99.90;;;;;;5118372;27;20467;-70
2022/11/04 10:42:17;;;;;;;30.70;16.00;;;10.50;99.90;;;;;;5135444;27;20054;-70
2022/11/04 10:44:45;;;;;;;37.72;15.45;;;10.60;99.90;;;;;;5136519;27;20062;-68
2022/11/04 10:47:14;;;;;;;32.45;15.05;;;10.80;99.90;;;;;;5117103;27;20074;-68
2022/11/04 10:50:17;;;;;;;32.28;14.93;;;10.90;99.90;;;;;;5116473;27;20486;-69
2022/11/04 10:52:43;;;;;;;30.08;13.98;;;11.30;99.90;;;;;;5135618;27;20495;-68
2022/11/04 10:55:27;;;;;;;31.80;15.00;;;11.40;99.90;;;;;;5134586;27;20078;-69
2022/11/04 10:58:00;;;;;;;29.02;15.00;;;11.50;99.90;;;;;;5135400;27;20395;-69
2022/11/04 11:00:41;;;;;;;33.10;15.75;;;11.50;99.90;;;;;;5117295;27;20371;-69
2022/11/04 11:03:36;;;;;;;35.17;16.30;;;11.70;99.90;;;;;;5134619;27;20136;-69
2022/11/04 11:06:25;;;;;;;29.70;15.05;;;11.70;99.90;;;;;;5112512;27;20054;-72
2022/11/04 11:09:11;;;;;;;30.65;15.75;;;11.70;99.90;;;;;;5134245;27;20047;-69
2022/11/04 11:11:48;;;;;;;34.77;17.07;;;11.50;99.90;;;;;;5135009;27;20046;-69
2022/11/04 11:14:34;;;;;;;32.33;15.65;;;11.50;99.90;;;;;;5135373;28;20678;-71
2022/11/04 11:17:21;;;;;;;30.83;14.63;;;11.50;99.90;;;;;;5135764;28;20050;-69
2022/11/04 11:19:53;;;;;;;30.50;14.05;;;11.60;99.90;;;;;;5135002;28;20173;-68
2022/11/04 11:22:33;;;;;;;35.60;14.75;;;11.50;99.90;;;;;;5115942;28;20399;-73
2022/11/04 11:25:29;;;;;;;26.25;13.65;;;11.30;99.90;;;;;;5134596;28;20090;-68
2022/11/04 11:28:21;;;;;;;24.60;12.77;;;11.30;99.90;;;;;;5116384;28;20043;-71
2022/11/04 11:30:47;;;;;;;33.42;14.90;;;11.30;99.90;;;;;;5136036;28;20561;-70
2022/11/04 11:33:27;;;;;;;33.15;14.75;;;11.30;99.90;;;;;;5135722;27;20057;-70
2022/11/04 11:36:20;;;;;;;30.90;15.18;;;11.30;99.90;;;;;;5139186;27;20116;-70
2022/11/04 11:39:12;;;;;;;28.40;15.07;;;11.40;99.90;;;;;;5121298;27;20047;-69
2022/11/04 11:41:59;;;;;;;31.48;14.02;;;11.60;99.90;;;;;;5139666;27;20126;-69
2022/11/04 11:44:42;;;;;;;29.13;14.05;;;11.70;99.90;;;;;;5139531;27;20040;-71
2022/11/04 11:47:21;;;;;;;26.38;13.15;;;11.70;99.90;;;;;;5138264;27;20088;-69
2022/11/04 11:50:15;;;;;;;26.30;13.27;;;11.60;99.90;;;;;;5137479;27;20035;-70
2022/11/04 11:52:42;;;;;;;31.33;12.73;;;11.60;99.90;;;;;;5139866;27;20043;-70
2022/11/04 11:55:19;;;;;;;23.33;11.87;;;11.70;99.90;;;;;;5121777;27;20061;-69
2022/11/04 11:57:59;;;;;;;27.90;13.43;;;11.80;99.90;;;;;;5139057;27;20295;-72
2022/11/04 12:00:31;;;;;;;30.15;13.93;;;11.90;99.90;;;;;;5139326;27;20120;-70
2022/11/04 12:03:06;;;;;;;27.23;13.02;;;12.00;99.90;;;;;;5137652;27;20130;-71
2022/11/04 12:05:38;;;;;;;23.65;12.75;;;12.00;99.90;;;;;;5137440;27;20039;-72
2022/11/04 12:09:01;;;;;;;27.33;12.57;;;12.10;99.90;;;;;;5118950;27;20047;-72
2022/11/04 12:11:32;;;;;;;28.35;11.68;;;12.30;99.90;;;;;;5033882;28;20136;-70
2022/11/04 12:14:27;;;;;;;20.70;11.27;;;12.50;99.90;;;;;;5034204;28;20048;-71
2022/11/04 12:17:20;;;;;;;22.05;10.27;;;12.50;99.90;;;;;;5105709;27;20047;-69
2022/11/04 12:20:04;;;;;;;29.20;10.10;;;12.60;99.90;;;;;;5137563;27;20101;-70
2022/11/04 12:22:47;;;;;;;18.20;8.57;;;12.70;99.90;;;;;;5140234;27;20039;-72
2022/11/04 12:25:36;;;;;;;20.85;9.32;;;12.80;99.90;;;;;;5139864;27;20047;-72
2022/11/04 12:28:21;;;;;;;19.73;9.50;;;13.10;99.90;;;;;;5121281;27;20047;-72
2022/11/04 12:31:05;;;;;;;18.10;9.75;;;13.30;99.90;;;;;;5140123;27;20051;-71
2022/11/04 12:34:05;;;;;;;21.50;9.07;;;13.40;99.90;;;;;;5139908;27;20039;-72
2022/11/04 12:36:53;;;;;;;17.65;7.90;;;13.50;99.90;;;;;;5140476;27;20043;-70
2022/11/04 12:39:38;;;;;;;17.67;7.47;;;13.60;99.90;;;;;;5122165;27;20051;-69
2022/11/04 12:42:12;;;;;;;12.30;6.80;;;13.80;99.90;;;;;;5139619;27;20452;-69
2022/11/04 12:44:52;;;;;;;16.95;8.45;;;13.80;99.90;;;;;;5138846;27;20076;-69
2022/11/04 12:47:41;;;;;;;19.05;7.55;;;13.80;99.90;;;;;;5140050;27;20047;-72
2022/11/04 12:50:42;;;;;;;16.00;8.55;;;13.60;99.90;;;;;;5140010;27;20039;-71
2022/11/04 12:53:34;;;;;;;13.82;6.28;;;13.50;99.90;;;;;;5134397;27;20497;-70
2022/11/04 12:56:13;;;;;;;14.52;6.25;;;13.60;99.90;;;;;;5102510;27;20063;-71
2022/11/04 12:58:45;;;;;;;12.77;6.47;;;13.60;99.90;;;;;;5137423;27;20044;-70
2022/11/04 13:01:48;;;;;;;16.60;8.52;;;13.60;99.90;;;;;;5137931;27;20039;-69
2022/11/04 13:04:20;;;;;;;16.35;7.93;;;13.70;99.90;;;;;;5120998;27;20125;-70
2022/11/04 13:07:06;;;;;;;7.43;1.85;;;13.40;99.90;;;;;;5139054;27;20043;-71
2022/11/04 13:09:46;;;;;;;7.85;0.60;;;13.20;99.90;;;;;;5103062;27;20047;-72
2022/11/04 13:12:19;;;;;;;3.78;0.40;;;12.20;99.90;;;;;;5137805;27;20405;-69
2022/11/04 13:15:01;;;;;;;2.97;0.32;;;11.50;99.90;;;;;;5136625;27;20108;-70
2022/11/04 13:17:34;;;;;;;5.05;0.50;;;10.40;99.90;;;;;;5118562;27;20108;-68
2022/11/04 13:20:13;;;;;;;5.40;0.50;;;10.20;99.90;;;;;;5136661;27;20354;-67
2022/11/04 13:22:45;;;;;;;4.50;0.50;;;9.60;99.90;;;;;;5117583;27;20043;-68
2022/11/04 13:25:29;;;;;;;7.13;0.57;;;9.50;99.90;;;;;;5136904;27;20089;-68
2022/11/04 13:27:56;;;;;;;4.60;0.40;;;9.30;99.90;;;;;;5118025;27;20050;-69
2022/11/04 13:30:37;;;;;;;4.95;0.70;;;9.30;99.90;;;;;;5135785;27;20035;-69
2022/11/04 13:33:39;;;;;;;4.47;0.80;;;9.40;99.90;;;;;;5117178;27;20043;-69
2022/11/04 13:36:21;;;;;;;8.18;0.50;;;9.50;99.90;;;;;;5134155;27;20053;-71
2022/11/04 13:39:00;;;;;;;5.70;0.57;;;9.50;99.90;;;;;;5115974;27;20054;-69
2022/11/04 13:41:48;;;;;;;4.78;0.60;;;9.60;99.90;;;;;;5134135;27;20039;-68
2022/11/04 13:44:29;;;;;;;6.80;0.63;;;9.70;99.90;;;;;;5117284;27;20127;-68